Saigon Express — VRBT7 — position and weather

sailwx.info

Track history (hours):
 
Tides and Currents Weather Stations Pressure Air Temp Water Temp Dewpoint Dewpoint Depression Visibility Wind Speed Wind Dir Waves Ship Positions

Saigon Express

Last reported at 2014-Sep-06 03:33 UTC. Time now 2014-Sep-23 04:20 UTC.
Position N 36°21' E 014°35'.
Warning: this ship's position is 17 days out of date.

Length 260 m; draft 11.7 m.

Type: Ship (hazmat cat A). MMSI: 477106800.

Date/timePositionNaut miles runAvg speedWind from/ knotsBaromVisibWave heightAir tempDewpointWater temp
2014-Sep-06 03:33N 36°21' E 014°35'1515.2
2014-Sep-06 02:33N 36°25' E 014°17'1515.3
2014-Sep-06 01:33N 36°30' E 013°59'1515.4
2014-Sep-06 00:33N 36°34' E 013°41'1615.4
2014-Sep-05 23:33N 36°39' E 013°22'1515.3
2014-Sep-05 22:33N 36°43' E 013°04'7615.2
2014-Sep-05 17:33N 37°11' E 011°35'1515.5
2014-Sep-05 16:33N 37°19' E 011°18'1615.5
2014-Sep-05 15:33N 37°27' E 011°02'1515.4
2014-Sep-05 14:33N 37°30' E 010°43'1515.2
2014-Sep-05 13:33N 37°32' E 010°24'1615.3
2014-Sep-05 12:33N 37°33' E 010°04'1515.4
2014-Sep-05 11:33N 37°32' E 009°45'1615.5
2014-Sep-05 10:33N 37°28' E 009°26'1615.8
2014-Sep-05 09:33N 37°24' E 009°07'1615.6
2014-Sep-05 08:31N 37°19' E 008°48'1515.5
2014-Sep-05 07:33N 37°15' E 008°30'1615.6
2014-Sep-05 06:32N 37°15' E 008°10'1515.4
2014-Sep-05 05:33N 37°15' E 007°51'1615.6
2014-Sep-05 04:31N 37°15' E 007°31'4815.8
2014-Sep-05 01:31N 37°15' E 006°31'1615.4
2014-Sep-05 00:28N 37°15' E 006°11'1614.9
2014-Sep-04 23:22N 37°15' E 005°50'9115.6
2014-Sep-04 17:33N 37°15' E 003°56'1715.4
2014-Sep-04 16:27N 37°15' E 003°35'1415.9
2014-Sep-04 15:32N 37°15' E 003°17'6515.5
2014-Sep-04 11:21N 37°06' E 001°56'6421.4
2014-Sep-04 08:21N 36°51' E 000°37'1416.0
2014-Sep-04 07:29N 36°48' E 000°21'1815.6
2014-Sep-04 06:19N 36°44' W 000°02'1816.0
2014-Sep-04 05:13N 36°40' W 000°23'1616.0
2014-Sep-04 04:15N 36°37' W 000°42'1115.7
2014-Sep-04 03:33N 36°34' W 000°55'1615.7
2014-Sep-04 02:33N 36°31' W 001°14'1615.7
2014-Sep-04 01:33N 36°27' W 001°33'18115.8
2014-Sep-03 14:06N 35°60' W 005°15'916.5
2014-Sep-03 13:33N 35°58' W 005°26'16115.7
2014-Sep-03 03:18N 35°54' W 008°44'1316.0
2014-Sep-03 02:29N 35°54' W 009°00'1716.1
2014-Sep-03 01:26N 35°56' W 009°21'82016.0
2014-Aug-31 22:18N 39°27' W 026°02'7616.0
2014-Aug-31 17:31N 39°44' W 027°38'2016.2
2014-Aug-31 16:19N 39°49' W 028°03'1215.9
2014-Aug-31 15:33N 39°51' W 028°18'1616.1
2014-Aug-31 14:33N 39°55' W 028°39'1915.9
2014-Aug-31 13:23N 39°60' W 029°02'1416.5
2014-Aug-31 12:33N 40°03' W 029°20'1816.2
2014-Aug-31 11:27N 40°07' W 029°42'1616.1
2014-Aug-31 10:27N 40°10' W 030°03'1817.9
2014-Aug-31 09:28N 40°10' W 030°26'1415.8
2014-Aug-31 08:33N 40°10' W 030°45'2015.8
2014-Aug-31 07:17N 40°10' W 031°11'  
Track history (hours):
 
Tides and Currents Weather Stations Pressure Air Temp Water Temp Dewpoint Dewpoint Depression Visibility Wind Speed Wind Dir Waves Ship Positions

Saigon Express

Last reported at 2014-Sep-06 03:33 UTC. Time now 2014-Sep-23 04:20 UTC.
Position N 36°21' E 014°35'.
Warning: this ship's position is 17 days out of date.

Length 260 m; draft 11.7 m.

Type: Ship (hazmat cat A). MMSI: 477106800.

Date/timePositionNaut miles runAvg speedWind from/ knotsBaromVisibWave heightAir tempDewpointWater temp
2014-Sep-06 03:33N 36°21' E 014°35'1515.2
2014-Sep-06 02:33N 36°25' E 014°17'1515.3
2014-Sep-06 01:33N 36°30' E 013°59'1515.4
2014-Sep-06 00:33N 36°34' E 013°41'1615.4
2014-Sep-05 23:33N 36°39' E 013°22'1515.3
2014-Sep-05 22:33N 36°43' E 013°04'7615.2
2014-Sep-05 17:33N 37°11' E 011°35'1515.5
2014-Sep-05 16:33N 37°19' E 011°18'1615.5
2014-Sep-05 15:33N 37°27' E 011°02'1515.4
2014-Sep-05 14:33N 37°30' E 010°43'1515.2
2014-Sep-05 13:33N 37°32' E 010°24'1615.3
2014-Sep-05 12:33N 37°33' E 010°04'1515.4
2014-Sep-05 11:33N 37°32' E 009°45'1615.5
2014-Sep-05 10:33N 37°28' E 009°26'1615.8
2014-Sep-05 09:33N 37°24' E 009°07'1615.6
2014-Sep-05 08:31N 37°19' E 008°48'1515.5
2014-Sep-05 07:33N 37°15' E 008°30'1615.6
2014-Sep-05 06:32N 37°15' E 008°10'1515.4
2014-Sep-05 05:33N 37°15' E 007°51'1615.6
2014-Sep-05 04:31N 37°15' E 007°31'4815.8
2014-Sep-05 01:31N 37°15' E 006°31'1615.4
2014-Sep-05 00:28N 37°15' E 006°11'1614.9
2014-Sep-04 23:22N 37°15' E 005°50'9115.6
2014-Sep-04 17:33N 37°15' E 003°56'1715.4
2014-Sep-04 16:27N 37°15' E 003°35'1415.9
2014-Sep-04 15:32N 37°15' E 003°17'6515.5
2014-Sep-04 11:21N 37°06' E 001°56'6421.4
2014-Sep-04 08:21N 36°51' E 000°37'1416.0
2014-Sep-04 07:29N 36°48' E 000°21'1815.6
2014-Sep-04 06:19N 36°44' W 000°02'1816.0
2014-Sep-04 05:13N 36°40' W 000°23'1616.0
2014-Sep-04 04:15N 36°37' W 000°42'1115.7
2014-Sep-04 03:33N 36°34' W 000°55'1615.7
2014-Sep-04 02:33N 36°31' W 001°14'1615.7
2014-Sep-04 01:33N 36°27' W 001°33'18115.8
2014-Sep-03 14:06N 35°60' W 005°15'916.5
2014-Sep-03 13:33N 35°58' W 005°26'16115.7
2014-Sep-03 03:18N 35°54' W 008°44'1316.0
2014-Sep-03 02:29N 35°54' W 009°00'1716.1
2014-Sep-03 01:26N 35°56' W 009°21'82016.0
2014-Aug-31 22:18N 39°27' W 026°02'7616.0
2014-Aug-31 17:31N 39°44' W 027°38'2016.2
2014-Aug-31 16:19N 39°49' W 028°03'1215.9
2014-Aug-31 15:33N 39°51' W 028°18'1616.1
2014-Aug-31 14:33N 39°55' W 028°39'1915.9
2014-Aug-31 13:23N 39°60' W 029°02'1416.5
2014-Aug-31 12:33N 40°03' W 029°20'1816.2
2014-Aug-31 11:27N 40°07' W 029°42'1616.1
2014-Aug-31 10:27N 40°10' W 030°03'1817.9
2014-Aug-31 09:28N 40°10' W 030°26'1415.8
2014-Aug-31 08:33N 40°10' W 030°45'2015.8
2014-Aug-31 07:17N 40°10' W 031°11'  

Dump ship's entire track history